Time;durP1;ratioP1;P1;durP2;ratioP2;P2;SDS_P1;SDS_P2;PMS_P1;PMS_P2;Temp;Humidity;BMP_temperature;BMP_pressure;BME280_temperature;BME280_humidity;BME280_pressure;Samples;Min_cycle;Max_cycle;Signal;HPM_P1;HPM_P2
2022/12/09 00:00:29;;;;;;;50.20;16.07;;;;;;;10.82;49.65;100773.97;5114873;27;20045;-68
2022/12/09 00:02:55;;;;;;;61.33;16.13;;;;;;;10.19;50.55;100784.19;5115062;27;20394;-68
2022/12/09 00:05:20;;;;;;;77.83;18.97;;;;;;;9.95;51.13;100776.56;5115966;27;20026;-69
2022/12/09 00:07:45;;;;;;;71.13;18.63;;;;;;;9.61;52.78;100779.41;5111777;27;20185;-68
2022/12/09 00:10:11;;;;;;;59.57;17.27;;;;;;;10.57;50.71;100784.72;5131474;27;20383;-68
2022/12/09 00:12:36;;;;;;;93.87;18.43;;;;;;;10.19;51.05;100778.97;5133219;27;20527;-69
2022/12/09 00:15:02;;;;;;;75.30;19.93;;;;;;;10.13;50.99;100775.53;5115530;27;20175;-68
2022/12/09 00:17:29;;;;;;;97.83;18.97;;;;;;;10.21;51.26;100776.31;5130864;27;20052;-68
2022/12/09 00:19:54;;;;;;;47.47;17.87;;;;;;;10.29;50.93;100779.72;5114225;27;20035;-68
2022/12/09 00:22:20;;;;;;;106.03;18.47;;;;;;;10.26;50.89;100785.00;5134001;27;20037;-68
2022/12/09 00:24:45;;;;;;;67.67;17.97;;;;;;;8.76;53.80;100791.13;5113820;27;20019;-69
2022/12/09 00:27:11;;;;;;;79.33;16.80;;;;;;;8.96;54.11;100779.78;5114407;27;20521;-69
2022/12/09 00:29:36;;;;;;;41.53;16.50;;;;;;;10.56;51.52;100780.34;5113938;27;20027;-68
2022/12/09 00:32:02;;;;;;;44.33;17.57;;;;;;;10.86;49.94;100783.50;5112744;27;20034;-68
2022/12/09 00:34:27;;;;;;;62.20;18.50;;;;;;;10.39;50.37;100782.31;5134007;27;20426;-69
2022/12/09 00:36:52;;;;;;;53.30;19.97;;;;;;;10.64;49.26;100775.06;5113042;27;20023;-69
2022/12/09 00:39:18;;;;;;;70.17;21.50;;;;;;;11.35;48.27;100775.03;5113546;27;20083;-69
2022/12/09 00:41:43;;;;;;;79.40;23.33;;;;;;;10.95;49.26;100785.13;5114624;27;20031;-69
2022/12/09 00:44:10;;;;;;;106.10;25.07;;;;;;;11.55;47.65;100781.72;5113190;27;20038;-68
2022/12/09 00:46:35;;;;;;;54.93;18.60;;;;;;;10.92;48.26;100787.78;5112685;27;20540;-69
2022/12/09 00:49:03;;;;;;;38.60;17.90;;;;;;;10.86;49.22;100786.97;5132656;27;20031;-68
2022/12/09 00:51:28;;;;;;;63.40;20.40;;;;;;;11.41;47.43;100778.44;5114541;27;20019;-69
2022/12/09 00:53:54;;;;;;;67.63;19.37;;;;;;;11.43;47.60;100782.78;5114959;27;20512;-68
2022/12/09 00:56:29;;;;;;;51.53;18.47;;;;;;;11.99;46.45;100788.06;5111950;27;20034;-68
2022/12/09 00:58:55;;;;;;;59.07;19.20;;;;;;;11.01;48.30;100796.38;5098488;27;20497;-69
2022/12/09 01:01:21;;;;;;;40.23;19.67;;;;;;;11.49;47.90;100800.13;5113572;27;20096;-68
2022/12/09 01:03:46;;;;;;;69.03;20.07;;;;;;;11.53;46.82;100799.22;5112808;27;20034;-68
2022/12/09 01:06:16;;;;;;;92.77;19.33;;;;;;;11.58;46.29;100794.78;5114010;27;20435;-68
2022/12/09 01:08:41;;;;;;;79.87;20.20;;;;;;;11.82;47.04;100795.28;5112053;27;20038;-68
2022/12/09 01:11:13;;;;;;;53.70;19.43;;;;;;;11.43;46.63;100794.97;5113442;27;20031;-69
2022/12/09 01:13:39;;;;;;;41.45;18.02;;;;;;;10.98;47.52;100804.28;5130582;27;20084;-69
2022/12/09 01:16:13;;;;;;;47.77;18.53;;;;;;;11.55;46.57;100792.19;5114376;27;20436;-69
2022/12/09 01:18:38;;;;;;;64.03;18.70;;;;;;;11.34;47.04;100804.69;5111739;27;20035;-68
2022/12/09 01:21:03;;;;;;;48.00;18.60;;;;;;;10.71;47.19;100807.22;5112894;27;20375;-69
2022/12/09 01:23:29;;;;;;;63.47;19.17;;;;;;;10.86;48.04;100813.13;5130629;27;20027;-68
2022/12/09 01:25:54;;;;;;;61.57;19.50;;;;;;;10.60;49.01;100809.94;5132799;27;20015;-68
2022/12/09 01:28:20;;;;;;;57.40;18.80;;;;;;;10.83;48.10;100812.31;5110091;27;20130;-69
2022/12/09 01:30:45;;;;;;;54.53;19.10;;;;;;;11.17;48.06;100806.69;5112246;27;20057;-68
2022/12/09 01:33:11;;;;;;;60.73;18.80;;;;;;;10.75;48.47;100809.78;5113358;27;20094;-69
2022/12/09 01:35:40;;;;;;;50.27;18.10;;;;;;;11.38;47.99;100805.53;5113375;27;20508;-69
2022/12/09 01:38:07;;;;;;;49.17;18.10;;;;;;;11.36;46.71;100802.03;5130591;27;20015;-69
2022/12/09 01:40:33;;;;;;;46.90;17.70;;;;;;;11.74;46.80;100797.16;5130797;27;20109;-68
2022/12/09 01:42:58;;;;;;;46.23;18.17;;;;;;;11.12;47.04;100798.03;5113500;27;20126;-69
2022/12/09 01:45:35;;;;;;;43.10;16.53;;;;;;;10.96;48.04;100798.22;5130150;27;20052;-68
2022/12/09 01:48:22;;;;;;;47.30;18.17;;;;;;;11.15;47.42;100803.22;5112116;27;20061;-69
2022/12/09 01:51:06;;;;;;;47.83;17.07;;;;;;;10.92;48.18;100793.91;5130243;27;20057;-69
2022/12/09 01:53:36;;;;;;;50.23;17.50;;;;;;;11.33;47.49;100800.34;5113849;27;20553;-68
2022/12/09 01:56:09;;;;;;;65.27;16.77;;;;;;;11.56;46.22;100796.53;5130275;27;20058;-68
2022/12/09 01:58:35;;;;;;;47.30;17.13;;;;;;;11.00;46.69;100799.91;5111793;27;20067;-69
2022/12/09 02:01:01;;;;;;;47.83;15.90;;;;;;;10.24;49.11;100802.41;5113256;27;20575;-68
2022/12/09 02:03:26;;;;;;;39.37;14.27;;;;;;;10.57;48.43;100803.00;5113147;27;20436;-68
2022/12/09 02:05:52;;;;;;;44.33;14.67;;;;;;;11.26;47.68;100806.53;5130088;27;20023;-69
2022/12/09 02:08:18;;;;;;;43.30;14.73;;;;;;;10.85;48.27;100806.19;5112584;27;20035;-68
2022/12/09 02:11:11;;;;;;;42.07;15.23;;;;;;;9.36;50.98;100799.59;5109503;27;20023;-69
2022/12/09 02:13:48;;;;;;;38.50;15.07;;;;;;;10.52;48.16;100796.94;5110882;27;20031;-68
2022/12/09 02:16:19;;;;;;;45.67;14.97;;;;;;;10.25;48.72;100793.72;5112738;27;20366;-69
2022/12/09 02:19:15;;;;;;;40.10;13.73;;;;;;;10.34;48.64;100788.44;5111488;28;20054;-68
2022/12/09 02:21:52;;;;;;;39.00;13.10;;;;;;;10.61;48.47;100786.41;5111748;28;20028;-69
2022/12/09 02:24:25;;;;;;;46.83;13.97;;;;;;;11.10;46.93;100784.06;5108935;28;20028;-68
2022/12/09 02:27:10;;;;;;;47.80;16.37;;;;;;;11.77;45.18;100786.63;5126880;27;20031;-68
2022/12/09 02:30:13;;;;;;;47.73;14.43;;;;;;;10.49;47.27;100786.53;5111368;28;20161;-69
2022/12/09 02:33:01;;;;;;;47.38;15.73;;;;;;;10.10;48.35;100791.25;5096469;28;20027;-69
2022/12/09 02:35:42;;;;;;;54.47;17.67;;;;;;;11.05;47.15;100785.91;5113378;28;20031;-68
2022/12/09 02:38:13;;;;;;;41.97;14.53;;;;;;;10.05;48.44;100790.41;5110742;28;20046;-68
2022/12/09 02:40:47;;;;;;;39.70;13.17;;;;;;;10.69;47.56;100789.78;5111193;28;20035;-69
2022/12/09 02:43:16;;;;;;;40.03;14.37;;;;;;;10.80;46.60;100783.59;5110469;28;20114;-68
2022/12/09 02:45:43;;;;;;;48.33;16.03;;;;;;;10.91;47.67;100789.56;5110838;28;20117;-69
2022/12/09 02:48:12;;;;;;;49.13;16.67;;;;;;;10.61;48.03;100789.00;5112569;28;20024;-68
2022/12/09 02:50:41;;;;;;;47.10;15.43;;;;;;;10.46;47.75;100786.56;5111124;28;20042;-68
2022/12/09 02:53:11;;;;;;;45.30;16.57;;;;;;;10.54;48.16;100787.34;5112408;28;20027;-68
2022/12/09 02:55:39;;;;;;;47.60;16.33;;;;;;;9.55;49.42;100790.78;5113384;28;20023;-68
2022/12/09 02:58:04;;;;;;;42.17;15.97;;;;;;;10.77;48.23;100776.66;5110429;28;20031;-68
2022/12/09 03:00:30;;;;;;;40.20;15.00;;;;;;;9.88;49.09;100778.34;5112156;28;20043;-68
2022/12/09 03:03:00;;;;;;;45.30;16.53;;;;;;;9.82;49.43;100770.56;5111996;28;20441;-69
2022/12/09 03:05:32;;;;;;;32.83;13.97;;;;;;;10.28;49.03;100783.22;5111254;28;20027;-68
2022/12/09 03:08:23;;;;;;;41.42;14.63;;;;;;;10.37;47.73;100776.22;5115954;27;20045;-68
2022/12/09 03:11:01;;;;;;;39.03;14.97;;;;;;;10.44;47.98;100777.88;5116095;27;20031;-69
2022/12/09 03:13:55;;;;;;;40.50;15.57;;;;;;;10.42;47.64;100774.41;5132796;27;20038;-69
2022/12/09 03:16:33;;;;;;;44.90;15.73;;;;;;;10.87;47.83;100772.16;5135541;27;20027;-68
2022/12/09 03:19:23;;;;;;;38.40;15.40;;;;;;;10.85;47.91;100771.31;5115972;27;20042;-68
2022/12/09 03:21:53;;;;;;;42.93;16.13;;;;;;;10.59;48.31;100764.66;5116851;27;20083;-68
2022/12/09 03:24:23;;;;;;;42.17;16.27;;;;;;;10.92;46.87;100765.16;5115277;27;20130;-68
2022/12/09 03:26:51;;;;;;;50.47;19.70;;;;;;;10.99;46.52;100761.56;5131692;27;20786;-69
2022/12/09 03:29:22;;;;;;;42.27;17.03;;;;;;;10.23;48.08;100764.09;5127705;27;20019;-68
2022/12/09 03:31:49;;;;;;;44.00;17.47;;;;;;;10.94;47.66;100762.50;5114057;27;20136;-68
2022/12/09 03:34:18;;;;;;;42.90;17.37;;;;;;;11.36;46.33;100750.59;5114680;27;20429;-69
2022/12/09 03:36:49;;;;;;;44.90;17.77;;;;;;;10.91;47.07;100757.28;5114891;27;20026;-69
2022/12/09 03:39:20;;;;;;;42.47;16.77;;;;;;;11.10;47.37;100752.69;5114440;27;20494;-69
2022/12/09 03:41:57;;;;;;;45.27;18.77;;;;;;;11.62;46.58;100751.97;5114257;27;20026;-68
2022/12/09 03:44:32;;;;;;;43.27;17.03;;;;;;;11.03;47.15;100751.91;5131115;27;20046;-68
2022/12/09 03:46:58;;;;;;;46.07;16.77;;;;;;;10.94;47.27;100752.03;5111673;27;20034;-68
2022/12/09 03:49:24;;;;;;;44.07;17.10;;;;;;;11.22;46.50;100755.13;5113594;27;20049;-68
2022/12/09 03:52:17;;;;;;;46.80;17.00;;;;;;;11.27;45.57;100748.09;5116334;27;20521;-68
2022/12/09 03:54:46;;;;;;;40.27;16.23;;;;;;;10.93;46.68;100745.94;5113301;27;20027;-68
2022/12/09 03:57:17;;;;;;;43.57;16.07;;;;;;;11.42;45.85;100738.31;5115102;27;20048;-68
2022/12/09 03:59:50;;;;;;;38.80;15.67;;;;;;;10.40;46.50;100745.69;5115722;27;20053;-69
2022/12/09 04:02:15;;;;;;;;;;;;;;;10.79;47.16;100745.25;5114210;27;20042;-69
2022/12/09 04:04:41;;;;;;;37.33;14.80;;;;;;;10.57;46.65;100748.13;5115142;27;19915;-69
2022/12/09 04:07:07;;;;;;;37.47;15.90;;;;;;;10.19;48.12;100746.72;5114711;27;20092;-68
2022/12/09 04:09:32;;;;;;;34.73;15.20;;;;;;;10.85;45.69;100742.53;5132433;27;20039;-68
2022/12/09 04:11:58;;;;;;;34.70;14.77;;;;;;;10.92;46.80;100739.00;5115900;27;20031;-68
2022/12/09 04:14:23;;;;;;;37.23;15.50;;;;;;;11.14;46.83;100733.44;5113404;27;20525;-69
2022/12/09 04:16:49;;;;;;;33.67;15.27;;;;;;;11.34;45.46;100739.25;5111675;27;20019;-68
2022/12/09 04:19:14;;;;;;;33.67;16.03;;;;;;;11.01;46.62;100743.22;5133139;27;20019;-69
2022/12/09 04:21:40;;;;;;;30.47;14.47;;;;;;;11.13;46.67;100737.81;5115662;27;20110;-68
2022/12/09 04:24:06;;;;;;;34.50;14.30;;;;;;;11.30;46.32;100740.19;5129408;27;20030;-69
2022/12/09 04:26:32;;;;;;;37.70;15.80;;;;;;;11.60;45.62;100739.78;5114035;27;20023;-69
2022/12/09 04:28:57;;;;;;;39.60;16.20;;;;;;;11.32;44.92;100733.19;5130998;27;20033;-68
2022/12/09 04:31:22;;;;;;;33.23;14.83;;;;;;;11.26;45.73;100737.66;5114146;27;20053;-68
2022/12/09 04:33:48;;;;;;;37.23;15.17;;;;;;;11.25;44.76;100734.19;5115253;27;20051;-68
2022/12/09 04:36:16;;;;;;;35.20;16.13;;;;;;;10.71;45.84;100741.88;5133082;27;20103;-69
2022/12/09 04:38:42;;;;;;;31.83;15.90;;;;;;;10.75;45.78;100735.72;5110130;27;20036;-68
2022/12/09 04:41:08;;;;;;;30.47;14.43;;;;;;;10.23;46.52;100743.22;5130728;27;20026;-69
2022/12/09 04:43:33;;;;;;;37.67;15.60;;;;;;;11.07;45.68;100742.28;5113567;27;20486;-69
2022/12/09 04:46:04;;;;;;;33.30;14.30;;;;;;;10.96;46.07;100745.03;5113161;27;20027;-68
2022/12/09 04:48:30;;;;;;;32.70;14.90;;;;;;;11.13;45.60;100742.22;5112374;27;20023;-69
2022/12/09 04:50:56;;;;;;;32.60;15.30;;;;;;;11.23;45.58;100733.31;5112098;27;20027;-69
2022/12/09 04:53:22;;;;;;;33.47;15.03;;;;;;;10.69;44.97;100731.44;5114951;27;20023;-69
2022/12/09 04:55:47;;;;;;;33.40;15.00;;;;;;;11.42;44.46;100738.31;5133413;27;20489;-68
2022/12/09 04:58:13;;;;;;;31.20;14.53;;;;;;;10.64;45.14;100734.09;5129689;27;20027;-68
2022/12/09 05:00:38;;;;;;;31.97;14.37;;;;;;;10.81;46.37;100738.25;5112025;27;20573;-69
2022/12/09 05:03:03;;;;;;;31.80;14.53;;;;;;;11.13;45.75;100736.97;5132502;27;20042;-69
2022/12/09 05:05:29;;;;;;;32.90;15.43;;;;;;;11.11;45.67;100733.50;5113109;27;20015;-69
2022/12/09 05:07:54;;;;;;;37.77;14.97;;;;;;;11.23;44.86;100735.94;5113819;27;20476;-69
2022/12/09 05:10:20;;;;;;;27.83;13.30;;;;;;;11.38;43.86;100732.25;5112645;27;20023;-69
2022/12/09 05:12:45;;;;;;;34.97;16.63;;;;;;;11.05;44.69;100738.84;5111919;27;20023;-69
2022/12/09 05:15:10;;;;;;;32.43;14.37;;;;;;;10.91;45.84;100737.25;5114664;27;20050;-69
2022/12/09 05:17:36;;;;;;;33.67;13.77;;;;;;;11.23;45.29;100737.72;5111897;27;20060;-69
2022/12/09 05:20:02;;;;;;;33.97;15.53;;;;;;;11.34;45.01;100739.25;5127266;27;20027;-68
2022/12/09 05:22:27;;;;;;;33.50;15.53;;;;;;;11.38;44.38;100738.34;5131229;27;20061;-68
2022/12/09 05:24:53;;;;;;;34.13;15.30;;;;;;;11.14;44.96;100733.44;5113268;27;20033;-68
2022/12/09 05:27:18;;;;;;;35.87;14.33;;;;;;;11.08;45.23;100734.41;5112407;27;20031;-69
2022/12/09 05:29:43;;;;;;;31.27;14.30;;;;;;;10.66;45.89;100731.44;5129864;27;20469;-68
2022/12/09 05:32:09;;;;;;;31.20;14.13;;;;;;;10.41;45.99;100730.88;5113421;27;20018;-69
2022/12/09 05:34:34;;;;;;;37.07;15.60;;;;;;;10.26;45.79;100735.34;5130707;27;20027;-68
2022/12/09 05:36:59;;;;;;;29.53;14.30;;;;;;;10.64;45.52;100728.84;5114154;27;20047;-68
2022/12/09 05:39:25;;;;;;;29.70;13.87;;;;;;;10.38;45.89;100734.38;5109719;27;20019;-68
2022/12/09 05:41:50;;;;;;;33.37;14.80;;;;;;;10.12;46.40;100719.81;5132647;27;20027;-68
2022/12/09 05:44:16;;;;;;;36.87;15.70;;;;;;;9.91;46.38;100723.50;5114076;27;20094;-68
2022/12/09 05:46:41;;;;;;;30.83;14.07;;;;;;;10.14;45.59;100728.50;5111913;27;20019;-69
2022/12/09 05:49:07;;;;;;;33.60;15.17;;;;;;;9.83;46.99;100730.53;5129423;27;20056;-68
2022/12/09 05:51:32;;;;;;;34.13;14.77;;;;;;;9.81;46.53;100724.47;5131035;27;20037;-68
2022/12/09 05:54:03;;;;;;;34.00;14.33;;;;;;;9.77;47.24;100722.75;5113255;27;20047;-69
2022/12/09 05:56:29;;;;;;;32.43;14.30;;;;;;;9.89;46.26;100721.78;5113991;27;20479;-68
2022/12/09 05:58:55;;;;;;;38.93;16.23;;;;;;;9.79;45.93;100726.22;5107332;28;20020;-69
2022/12/09 06:01:21;;;;;;;34.40;14.77;;;;;;;9.72;46.12;100719.31;5112370;27;20047;-69
2022/12/09 06:03:48;;;;;;;34.33;14.77;;;;;;;10.04;45.22;100719.00;5113922;27;20458;-69
2022/12/09 06:06:16;;;;;;;33.43;14.83;;;;;;;9.60;46.38;100721.16;5111427;27;20048;-68
2022/12/09 06:08:43;;;;;;;36.80;15.63;;;;;;;9.48;46.66;100721.25;5110516;27;20023;-69
2022/12/09 06:11:15;;;;;;;34.73;15.20;;;;;;;9.43;47.31;100718.66;5113858;27;20076;-69
2022/12/09 06:13:40;;;;;;;36.47;16.80;;;;;;;9.51;47.20;100716.00;5130239;27;20019;-70
2022/12/09 06:16:07;;;;;;;36.93;16.37;;;;;;;9.46;46.57;100712.56;5112983;28;20057;-68
2022/12/09 06:18:32;;;;;;;35.17;16.13;;;;;;;9.18;47.36;100717.97;5131180;27;20027;-69
2022/12/09 06:20:58;;;;;;;41.83;17.57;;;;;;;9.24;47.52;100722.25;5110591;28;20038;-68
2022/12/09 06:23:23;;;;;;;37.97;15.07;;;;;;;9.14;47.73;100722.31;5112749;28;20038;-69
2022/12/09 06:25:49;;;;;;;35.40;15.47;;;;;;;9.07;47.60;100725.84;5132073;28;20035;-69
2022/12/09 06:28:14;;;;;;;41.37;17.20;;;;;;;9.28;47.26;100724.84;5109509;28;20031;-68
2022/12/09 06:30:40;;;;;;;32.37;14.27;;;;;;;9.15;48.43;100723.19;5105386;28;20028;-69
2022/12/09 06:33:05;;;;;;;33.90;15.30;;;;;;;9.39;46.85;100732.59;5110773;28;20027;-69
2022/12/09 06:35:31;;;;;;;43.77;15.77;;;;;;;9.24;47.37;100720.50;5131868;28;20063;-69
2022/12/09 06:37:56;;;;;;;37.07;15.17;;;;;;;9.56;46.48;100723.78;5128132;27;20030;-69
2022/12/09 06:40:22;;;;;;;40.87;16.30;;;;;;;9.53;46.51;100724.66;5111498;27;20035;-69
2022/12/09 06:42:50;;;;;;;36.17;15.90;;;;;;;9.31;47.06;100723.94;5116139;27;20111;-69
2022/12/09 06:45:17;;;;;;;38.83;16.83;;;;;;;9.41;46.62;100722.16;5115572;27;20038;-69
2022/12/09 06:47:43;;;;;;;41.70;16.53;;;;;;;9.41;45.97;100724.75;5115490;27;20050;-70
2022/12/09 06:50:09;;;;;;;34.67;15.07;;;;;;;9.13;47.75;100727.53;5114747;27;20489;-69
2022/12/09 06:52:36;;;;;;;38.93;16.37;;;;;;;9.16;47.42;100720.59;5117070;27;20031;-69
2022/12/09 06:55:02;;;;;;;41.77;18.23;;;;;;;9.45;46.47;100726.47;5113569;27;20045;-69
2022/12/09 06:57:28;;;;;;;37.10;15.50;;;;;;;8.97;47.53;100730.25;5113229;27;20066;-69
2022/12/09 06:59:53;;;;;;;45.67;17.27;;;;;;;9.00;47.97;100724.16;5114334;27;20506;-69
2022/12/09 07:02:19;;;;;;;40.43;16.87;;;;;;;8.88;48.32;100725.06;5133512;27;20038;-70
2022/12/09 07:04:44;;;;;;;41.77;15.60;;;;;;;9.28;47.11;100729.19;5111472;27;20478;-69
2022/12/09 07:07:10;;;;;;;39.83;15.57;;;;;;;9.12;46.84;100728.41;5117067;27;20027;-70
2022/12/09 07:09:35;;;;;;;35.30;14.27;;;;;;;9.14;46.84;100727.53;5116360;27;20024;-69
2022/12/09 07:12:01;;;;;;;41.93;17.33;;;;;;;8.94;47.90;100729.38;5114076;27;20394;-69
2022/12/09 07:14:26;;;;;;;37.50;15.40;;;;;;;8.82;48.39;100735.53;5114790;27;20034;-69
2022/12/09 07:16:51;;;;;;;41.30;16.17;;;;;;;9.00;47.01;100735.44;5116022;27;20535;-69
2022/12/09 07:19:20;;;;;;;41.17;16.20;;;;;;;9.30;45.75;100733.53;5115975;27;20027;-70
2022/12/09 07:21:46;;;;;;;40.13;17.63;;;;;;;9.08;47.11;100729.31;5112014;27;20534;-69
2022/12/09 07:24:11;;;;;;;37.13;15.30;;;;;;;9.26;46.54;100742.25;5132697;27;20027;-70
2022/12/09 07:26:37;;;;;;;39.10;16.50;;;;;;;8.89;47.20;100736.34;5112009;27;20073;-70
2022/12/09 07:29:04;;;;;;;40.53;16.37;;;;;;;9.09;46.22;100734.50;5116237;27;20031;-70
2022/12/09 07:31:29;;;;;;;41.67;18.13;;;;;;;9.07;46.67;100735.41;5113235;27;20066;-69
2022/12/09 07:33:57;;;;;;;40.07;18.07;;;;;;;9.05;45.75;100738.00;5111828;27;20058;-70
2022/12/09 07:36:24;;;;;;;42.87;17.50;;;;;;;9.08;45.59;100737.13;5132288;27;20516;-70
2022/12/09 07:38:57;;;;;;;41.23;17.77;;;;;;;9.13;45.86;100732.75;5115144;27;20111;-70
2022/12/09 07:41:23;;;;;;;38.83;17.17;;;;;;;8.88;46.29;100743.31;5116212;27;20035;-69
2022/12/09 07:43:49;;;;;;;38.97;17.13;;;;;;;8.75;46.89;100739.00;5133198;27;20543;-69
2022/12/09 07:46:16;;;;;;;39.80;16.63;;;;;;;8.73;47.26;100735.56;5114503;27;20437;-69
2022/12/09 07:48:41;;;;;;;32.07;14.10;;;;;;;8.87;47.19;100738.97;5116358;27;20049;-69
2022/12/09 07:51:06;;;;;;;34.60;15.27;;;;;;;8.89;46.94;100726.81;5116350;27;20405;-69
2022/12/09 07:53:36;;;;;;;35.10;13.90;;;;;;;8.59;47.45;100739.06;5131865;27;20546;-69
2022/12/09 07:56:03;;;;;;;35.90;16.30;;;;;;;8.90;46.84;100749.41;5133287;27;20118;-69
2022/12/09 07:58:29;;;;;;;36.10;15.23;;;;;;;8.57;47.57;100756.47;5113546;27;20452;-69
2022/12/09 08:00:54;;;;;;;34.10;13.90;;;;;;;8.81;46.52;100741.59;5115091;27;20131;-69
2022/12/09 08:03:19;;;;;;;37.77;15.73;;;;;;;8.68;46.63;100742.53;5115030;27;20513;-70
2022/12/09 08:05:49;;;;;;;37.70;17.13;;;;;;;8.60;46.63;100746.03;5111288;27;20027;-70
2022/12/09 08:08:15;;;;;;;36.23;14.80;;;;;;;8.30;47.52;100747.81;5115061;27;20035;-71
2022/12/09 08:10:41;;;;;;;34.90;14.73;;;;;;;8.20;48.19;100753.91;5134179;27;20031;-70
2022/12/09 08:13:06;;;;;;;36.37;14.30;;;;;;;8.35;48.06;100754.75;5114645;27;20031;-70
2022/12/09 08:15:32;;;;;;;33.67;14.27;;;;;;;8.31;48.97;100759.97;5114794;27;20053;-70
2022/12/09 08:17:57;;;;;;;41.33;15.50;;;;;;;8.54;48.24;100753.84;5113014;27;20056;-70
2022/12/09 08:20:23;;;;;;;38.90;16.00;;;;;;;8.37;48.10;100760.84;5132811;27;20105;-70
2022/12/09 08:22:48;;;;;;;40.50;15.87;;;;;;;8.40;48.76;100763.41;5108530;27;20027;-70
2022/12/09 08:25:13;;;;;;;46.17;16.60;;;;;;;8.57;47.52;100766.88;5115493;27;20042;-70
2022/12/09 08:27:39;;;;;;;38.47;15.27;;;;;;;8.62;46.91;100754.69;5112019;27;20741;-70
2022/12/09 08:30:05;;;;;;;44.73;16.77;;;;;;;8.79;46.85;100761.59;5113398;27;20440;-70
2022/12/09 08:32:31;;;;;;;37.20;14.00;;;;;;;8.88;46.56;100750.28;5132352;27;20035;-70
2022/12/09 08:34:56;;;;;;;34.40;14.10;;;;;;;8.74;47.67;100747.72;5114273;27;20031;-71
2022/12/09 08:37:21;;;;;;;36.97;15.43;;;;;;;8.79;47.10;100751.16;5113535;27;20019;-70
2022/12/09 08:39:47;;;;;;;43.60;15.47;;;;;;;8.49;47.69;100747.81;5113666;27;20465;-70
2022/12/09 08:42:12;;;;;;;38.20;15.37;;;;;;;8.77;46.92;100750.31;5110303;27;20076;-71
2022/12/09 08:44:38;;;;;;;39.33;16.57;;;;;;;8.20;48.82;100751.31;5114452;27;20027;-70
2022/12/09 08:47:04;;;;;;;39.90;16.63;;;;;;;8.59;47.60;100754.72;5114089;27;20482;-70
2022/12/09 08:49:29;;;;;;;44.97;18.60;;;;;;;8.66;47.05;100751.19;5101307;27;20041;-71
2022/12/09 08:51:55;;;;;;;45.87;18.00;;;;;;;8.90;46.91;100744.19;5095516;27;20038;-71
2022/12/09 08:54:21;;;;;;;45.47;17.20;;;;;;;9.13;46.38;100743.19;5111277;27;20490;-70
2022/12/09 08:56:49;;;;;;;48.23;17.37;;;;;;;8.99;47.15;100749.34;5099055;27;20439;-69
2022/12/09 08:59:15;;;;;;;51.90;18.47;;;;;;;8.96;46.72;100754.56;5127402;27;20049;-69
2022/12/09 09:01:40;;;;;;;47.97;18.53;;;;;;;8.73;48.12;100751.19;5110073;27;20494;-70
2022/12/09 09:04:09;;;;;;;50.33;24.13;;;;;;;8.97;47.49;100751.09;5112466;27;20019;-70
2022/12/09 09:06:36;;;;;;;53.23;22.43;;;;;;;9.28;46.16;100750.91;5112723;27;20034;-70
2022/12/09 09:09:03;;;;;;;46.20;18.00;;;;;;;9.37;46.15;100750.00;5113300;27;20055;-70
2022/12/09 09:11:29;;;;;;;48.63;19.07;;;;;;;9.24;46.84;100745.75;5113256;27;20464;-70
2022/12/09 09:13:55;;;;;;;53.30;19.77;;;;;;;9.36;46.51;100750.03;5132771;27;20031;-71
2022/12/09 09:16:26;;;;;;;51.17;19.20;;;;;;;9.57;46.45;100757.69;5104911;27;20114;-71
2022/12/09 09:18:51;;;;;;;54.87;20.90;;;;;;;9.54;46.26;100756.88;5111071;27;20475;-70
2022/12/09 09:21:20;;;;;;;64.73;22.10;;;;;;;9.46;46.29;100754.28;5112433;27;20114;-70
2022/12/09 09:23:46;;;;;;;55.10;19.97;;;;;;;9.59;45.88;100755.94;5115786;27;20076;-71
2022/12/09 09:26:24;;;;;;;53.50;20.77;;;;;;;9.57;46.50;100757.69;5112829;27;20091;-70
2022/12/09 09:28:50;;;;;;;52.30;20.03;;;;;;;9.44;46.80;100756.06;5112860;27;20211;-70
2022/12/09 09:31:18;;;;;;;50.13;19.93;;;;;;;9.53;46.56;100755.13;5114265;27;20019;-70
2022/12/09 09:33:44;;;;;;;49.57;20.83;;;;;;;8.84;48.30;100757.22;5100714;27;20020;-70
2022/12/09 09:36:22;;;;;;;62.83;23.30;;;;;;;9.52;46.93;100759.50;5113114;27;20105;-70
2022/12/09 09:38:49;;;;;;;58.13;24.33;;;;;;;9.17;48.48;100757.94;5113622;27;20023;-69
2022/12/09 09:41:32;;;;;;;64.77;23.97;;;;;;;8.97;48.54;100761.53;5132676;27;20499;-70
2022/12/09 09:43:59;;;;;;;55.47;20.47;;;;;;;9.00;48.71;100766.72;5112925;27;20097;-69
2022/12/09 09:46:44;;;;;;;48.80;20.37;;;;;;;9.92;46.68;100767.00;5111552;27;20027;-70
2022/12/09 09:49:18;;;;;;;62.07;20.27;;;;;;;9.82;47.61;100770.56;5114161;27;20033;-69
2022/12/09 09:51:44;;;;;;;49.13;19.13;;;;;;;9.42;48.16;100768.22;5114162;27;20478;-70
2022/12/09 09:54:13;;;;;;;51.17;19.53;;;;;;;9.45;47.65;100778.66;5112111;27;20026;-70
2022/12/09 09:56:53;;;;;;;45.03;18.90;;;;;;;9.87;47.13;100771.41;5131450;27;20046;-70
2022/12/09 09:59:18;;;;;;;56.17;18.40;;;;;;;9.99;47.01;100778.28;5131343;27;20486;-69
2022/12/09 10:02:01;;;;;;;51.17;20.67;;;;;;;10.01;46.78;100780.00;5113016;27;20051;-69
2022/12/09 10:04:45;;;;;;;51.77;18.43;;;;;;;10.11;46.79;100774.66;5113118;27;20522;-69
2022/12/09 10:07:32;;;;;;;57.70;20.47;;;;;;;9.44;48.13;100772.56;5111859;27;20027;-71
2022/12/09 10:10:14;;;;;;;46.57;19.97;;;;;;;9.55;48.03;100769.91;5132545;27;20028;-70
2022/12/09 10:12:58;;;;;;;57.50;20.17;;;;;;;9.26;48.34;100772.66;5112688;27;20134;-70
2022/12/09 10:15:37;;;;;;;47.13;19.23;;;;;;;10.01;47.15;100774.78;5112283;27;20300;-69
2022/12/09 10:18:02;;;;;;;51.07;18.13;;;;;;;9.99;47.18;100776.50;5131267;27;20443;-70
2022/12/09 10:20:29;;;;;;;53.00;21.13;;;;;;;10.38;47.16;100773.56;5113612;28;20080;-69
2022/12/09 10:22:59;;;;;;;59.93;22.60;;;;;;;10.84;46.17;100767.00;5130046;27;20037;-70
2022/12/09 10:25:29;;;;;;;62.63;24.37;;;;;;;11.43;45.06;100769.69;5113557;28;20027;-70
2022/12/09 10:28:32;;;;;;;60.03;23.67;;;;;;;11.60;45.03;100766.81;5111830;28;20436;-70
2022/12/09 10:30:58;;;;;;;56.17;23.65;;;;;;;12.16;43.88;100773.81;5110177;28;20039;-70
2022/12/09 10:33:35;;;;;;;53.63;24.00;;;;;;;12.73;42.75;100776.25;5131189;27;20038;-69
2022/12/09 10:36:01;;;;;;;45.70;20.10;;;;;;;12.71;43.67;100771.91;5112531;28;20452;-69
2022/12/09 10:38:28;;;;;;;46.23;20.80;;;;;;;11.46;45.37;100767.03;5130908;28;20028;-70
2022/12/09 10:41:15;;;;;;;40.27;19.87;;;;;;;11.78;44.45;100772.66;5131892;28;20031;-70
2022/12/09 10:43:41;;;;;;;41.77;18.90;;;;;;;11.62;44.63;100772.91;5092435;28;20031;-69
2022/12/09 10:46:06;;;;;;;40.87;19.47;;;;;;;11.41;45.71;100762.75;5093148;28;20024;-69
2022/12/09 10:48:47;;;;;;;46.07;20.70;;;;;;;10.67;47.36;100765.44;5103735;28;20035;-70
2022/12/09 10:51:17;;;;;;;44.00;19.10;;;;;;;11.10;46.40;100769.28;5110003;27;20035;-69
2022/12/09 10:53:54;;;;;;;48.37;21.33;;;;;;;10.75;47.30;100757.47;5124420;27;20490;-70
2022/12/09 10:56:24;;;;;;;44.80;19.33;;;;;;;11.36;46.55;100745.34;5110352;28;20423;-69
2022/12/09 10:59:18;;;;;;;47.67;21.13;;;;;;;11.36;46.52;100745.34;5104905;28;20455;-70
2022/12/09 11:01:55;;;;;;;49.77;21.53;;;;;;;10.44;47.62;100756.97;5094004;28;20406;-70
2022/12/09 11:04:30;;;;;;;52.77;22.07;;;;;;;9.77;49.18;100752.31;5111561;28;20037;-69
2022/12/09 11:07:01;;;;;;;52.17;21.17;;;;;;;10.23;48.26;100743.22;5112320;28;20023;-69
2022/12/09 11:09:31;;;;;;;43.93;20.10;;;;;;;9.69;49.27;100746.31;5113696;28;20027;-70
2022/12/09 11:11:57;;;;;;;49.27;21.03;;;;;;;9.95;49.08;100738.25;5109804;28;20533;-69
2022/12/09 11:14:47;;;;;;;52.83;21.87;;;;;;;10.47;48.32;100730.81;5113218;28;20019;-70
2022/12/09 11:17:28;;;;;;;50.60;21.23;;;;;;;10.68;48.18;100735.78;5111152;28;20050;-70
2022/12/09 11:20:24;;;;;;;53.70;21.43;;;;;;;10.92;47.75;100727.66;5110872;28;20076;-70